sensor_id;sensor_type;location;lat;lon;timestamp;P1;durP1;ratioP1;P2;durP2;ratioP2
75898;SDS011;64576;50.460;4.866;2023-05-24T00:01:12;8.05;;;2.97;;
75898;SDS011;64576;50.460;4.866;2023-05-24T00:03:38;15.02;;;3.10;;
75898;SDS011;64576;50.460;4.866;2023-05-24T00:06:04;12.05;;;2.70;;
75898;SDS011;64576;50.460;4.866;2023-05-24T00:08:31;11.57;;;2.67;;
75898;SDS011;64576;50.460;4.866;2023-05-24T00:10:57;8.52;;;2.05;;
75898;SDS011;64576;50.460;4.866;2023-05-24T00:13:23;6.65;;;2.70;;
75898;SDS011;64576;50.460;4.866;2023-05-24T00:15:48;6.40;;;2.17;;
75898;SDS011;64576;50.460;4.866;2023-05-24T00:18:13;11.77;;;3.25;;
75898;SDS011;64576;50.460;4.866;2023-05-24T00:20:41;10.32;;;2.40;;
75898;SDS011;64576;50.460;4.866;2023-05-24T00:23:07;9.10;;;2.80;;
75898;SDS011;64576;50.460;4.866;2023-05-24T00:25:33;8.05;;;2.13;;
75898;SDS011;64576;50.460;4.866;2023-05-24T00:27:58;8.98;;;2.70;;
75898;SDS011;64576;50.460;4.866;2023-05-24T00:30:24;10.13;;;3.13;;
75898;SDS011;64576;50.460;4.866;2023-05-24T00:32:50;5.93;;;3.22;;
75898;SDS011;64576;50.460;4.866;2023-05-24T00:35:16;12.85;;;4.65;;
75898;SDS011;64576;50.460;4.866;2023-05-24T00:37:41;9.25;;;2.40;;
75898;SDS011;64576;50.460;4.866;2023-05-24T00:40:09;11.02;;;3.15;;
75898;SDS011;64576;50.460;4.866;2023-05-24T00:42:35;18.50;;;3.78;;
75898;SDS011;64576;50.460;4.866;2023-05-24T00:45:01;5.88;;;2.35;;
75898;SDS011;64576;50.460;4.866;2023-05-24T00:47:26;11.73;;;3.13;;
75898;SDS011;64576;50.460;4.866;2023-05-24T00:49:51;10.20;;;2.83;;
75898;SDS011;64576;50.460;4.866;2023-05-24T00:52:17;16.20;;;3.95;;
75898;SDS011;64576;50.460;4.866;2023-05-24T00:54:42;11.05;;;3.75;;
75898;SDS011;64576;50.460;4.866;2023-05-24T00:57:08;16.45;;;3.42;;
75898;SDS011;64576;50.460;4.866;2023-05-24T00:59:34;9.18;;;2.55;;
75898;SDS011;64576;50.460;4.866;2023-05-24T01:02:00;7.47;;;2.50;;
75898;SDS011;64576;50.460;4.866;2023-05-24T01:04:25;18.08;;;4.55;;
75898;SDS011;64576;50.460;4.866;2023-05-24T01:09:45;8.18;;;3.40;;
75898;SDS011;64576;50.460;4.866;2023-05-24T01:15:23;17.25;;;3.10;;
75898;SDS011;64576;50.460;4.866;2023-05-24T01:17:52;13.20;;;3.17;;
75898;SDS011;64576;50.460;4.866;2023-05-24T01:20:25;7.22;;;2.85;;
75898;SDS011;64576;50.460;4.866;2023-05-24T01:26:02;9.30;;;2.53;;
75898;SDS011;64576;50.460;4.866;2023-05-24T01:28:54;15.75;;;3.15;;
75898;SDS011;64576;50.460;4.866;2023-05-24T01:31:20;13.25;;;3.13;;
75898;SDS011;64576;50.460;4.866;2023-05-24T01:33:45;9.57;;;3.10;;
75898;SDS011;64576;50.460;4.866;2023-05-24T01:36:11;10.88;;;3.22;;
75898;SDS011;64576;50.460;4.866;2023-05-24T01:38:37;23.50;;;4.50;;
75898;SDS011;64576;50.460;4.866;2023-05-24T01:41:05;9.70;;;3.63;;
75898;SDS011;64576;50.460;4.866;2023-05-24T01:47:09;9.65;;;2.92;;
75898;SDS011;64576;50.460;4.866;2023-05-24T01:52:15;12.63;;;3.80;;
75898;SDS011;64576;50.460;4.866;2023-05-24T01:54:44;17.80;;;3.42;;
75898;SDS011;64576;50.460;4.866;2023-05-24T01:57:14;15.02;;;3.75;;
75898;SDS011;64576;50.460;4.866;2023-05-24T01:59:42;18.08;;;6.80;;
75898;SDS011;64576;50.460;4.866;2023-05-24T02:02:09;9.00;;;3.72;;
75898;SDS011;64576;50.460;4.866;2023-05-24T02:04:36;21.27;;;3.63;;
75898;SDS011;64576;50.460;4.866;2023-05-24T02:07:01;19.08;;;4.47;;
75898;SDS011;64576;50.460;4.866;2023-05-24T02:09:27;14.48;;;3.92;;
75898;SDS011;64576;50.460;4.866;2023-05-24T02:11:52;11.60;;;3.60;;
75898;SDS011;64576;50.460;4.866;2023-05-24T02:14:18;11.88;;;4.15;;
75898;SDS011;64576;50.460;4.866;2023-05-24T02:16:43;14.73;;;4.70;;
75898;SDS011;64576;50.460;4.866;2023-05-24T02:19:11;15.30;;;5.68;;
75898;SDS011;64576;50.460;4.866;2023-05-24T02:21:37;20.75;;;4.53;;
75898;SDS011;64576;50.460;4.866;2023-05-24T02:24:02;9.98;;;3.88;;
75898;SDS011;64576;50.460;4.866;2023-05-24T02:26:28;16.70;;;4.32;;
75898;SDS011;64576;50.460;4.866;2023-05-24T02:28:53;12.10;;;4.50;;
75898;SDS011;64576;50.460;4.866;2023-05-24T02:31:18;16.13;;;4.45;;
75898;SDS011;64576;50.460;4.866;2023-05-24T02:33:45;17.98;;;4.40;;
75898;SDS011;64576;50.460;4.866;2023-05-24T02:36:11;16.35;;;4.50;;
75898;SDS011;64576;50.460;4.866;2023-05-24T02:38:36;14.38;;;4.05;;
75898;SDS011;64576;50.460;4.866;2023-05-24T02:41:02;10.77;;;4.22;;
75898;SDS011;64576;50.460;4.866;2023-05-24T02:43:27;13.70;;;3.90;;
75898;SDS011;64576;50.460;4.866;2023-05-24T02:45:53;14.05;;;4.80;;
75898;SDS011;64576;50.460;4.866;2023-05-24T02:48:18;13.02;;;5.13;;
75898;SDS011;64576;50.460;4.866;2023-05-24T02:50:44;14.80;;;4.38;;
75898;SDS011;64576;50.460;4.866;2023-05-24T02:53:09;14.85;;;5.38;;
75898;SDS011;64576;50.460;4.866;2023-05-24T02:55:35;15.95;;;4.53;;
75898;SDS011;64576;50.460;4.866;2023-05-24T02:58:01;11.68;;;3.53;;
75898;SDS011;64576;50.460;4.866;2023-05-24T03:00:27;18.98;;;5.50;;
75898;SDS011;64576;50.460;4.866;2023-05-24T03:02:52;11.48;;;4.60;;
75898;SDS011;64576;50.460;4.866;2023-05-24T03:05:19;14.75;;;5.32;;
75898;SDS011;64576;50.460;4.866;2023-05-24T03:07:45;12.88;;;4.47;;
75898;SDS011;64576;50.460;4.866;2023-05-24T03:10:10;13.75;;;5.00;;
75898;SDS011;64576;50.460;4.866;2023-05-24T03:12:35;14.18;;;4.65;;
75898;SDS011;64576;50.460;4.866;2023-05-24T03:15:01;20.65;;;3.53;;
75898;SDS011;64576;50.460;4.866;2023-05-24T03:17:26;18.48;;;4.93;;
75898;SDS011;64576;50.460;4.866;2023-05-24T03:19:52;12.52;;;5.05;;
75898;SDS011;64576;50.460;4.866;2023-05-24T03:22:18;25.25;;;6.13;;
75898;SDS011;64576;50.460;4.866;2023-05-24T03:24:43;18.65;;;4.50;;
75898;SDS011;64576;50.460;4.866;2023-05-24T03:27:10;12.77;;;5.00;;
75898;SDS011;64576;50.460;4.866;2023-05-24T03:29:35;15.10;;;4.45;;
75898;SDS011;64576;50.460;4.866;2023-05-24T03:32:01;19.02;;;5.28;;
75898;SDS011;64576;50.460;4.866;2023-05-24T03:34:26;15.70;;;5.78;;
75898;SDS011;64576;50.460;4.866;2023-05-24T03:36:52;16.92;;;5.70;;
75898;SDS011;64576;50.460;4.866;2023-05-24T03:39:17;15.23;;;4.63;;
75898;SDS011;64576;50.460;4.866;2023-05-24T03:41:42;23.20;;;6.93;;
75898;SDS011;64576;50.460;4.866;2023-05-24T03:44:08;21.48;;;5.32;;
75898;SDS011;64576;50.460;4.866;2023-05-24T03:46:34;13.95;;;5.18;;
75898;SDS011;64576;50.460;4.866;2023-05-24T03:48:59;13.27;;;5.10;;
75898;SDS011;64576;50.460;4.866;2023-05-24T03:51:25;20.92;;;5.32;;
75898;SDS011;64576;50.460;4.866;2023-05-24T03:53:56;16.88;;;4.55;;
75898;SDS011;64576;50.460;4.866;2023-05-24T03:56:22;18.55;;;5.22;;
75898;SDS011;64576;50.460;4.866;2023-05-24T03:58:48;14.27;;;5.10;;
75898;SDS011;64576;50.460;4.866;2023-05-24T04:01:13;13.02;;;4.07;;
75898;SDS011;64576;50.460;4.866;2023-05-24T04:03:39;25.35;;;4.88;;
75898;SDS011;64576;50.460;4.866;2023-05-24T04:06:05;19.33;;;4.68;;
75898;SDS011;64576;50.460;4.866;2023-05-24T04:08:31;21.15;;;6.68;;
75898;SDS011;64576;50.460;4.866;2023-05-24T04:10:56;16.42;;;4.25;;
75898;SDS011;64576;50.460;4.866;2023-05-24T04:13:21;12.05;;;4.47;;
75898;SDS011;64576;50.460;4.866;2023-05-24T04:15:47;17.58;;;5.80;;
75898;SDS011;64576;50.460;4.866;2023-05-24T04:18:12;13.07;;;5.10;;
75898;SDS011;64576;50.460;4.866;2023-05-24T04:20:38;12.98;;;4.35;;
75898;SDS011;64576;50.460;4.866;2023-05-24T04:23:03;21.58;;;7.03;;
75898;SDS011;64576;50.460;4.866;2023-05-24T04:25:28;20.85;;;6.00;;
75898;SDS011;64576;50.460;4.866;2023-05-24T04:27:54;20.40;;;5.93;;
75898;SDS011;64576;50.460;4.866;2023-05-24T04:30:21;14.65;;;5.30;;
75898;SDS011;64576;50.460;4.866;2023-05-24T04:32:46;21.83;;;5.85;;
75898;SDS011;64576;50.460;4.866;2023-05-24T04:35:12;25.50;;;5.55;;
75898;SDS011;64576;50.460;4.866;2023-05-24T04:37:38;15.30;;;4.78;;
75898;SDS011;64576;50.460;4.866;2023-05-24T04:40:05;17.10;;;5.28;;
75898;SDS011;64576;50.460;4.866;2023-05-24T04:42:32;17.23;;;5.50;;
75898;SDS011;64576;50.460;4.866;2023-05-24T04:44:58;15.38;;;5.15;;
75898;SDS011;64576;50.460;4.866;2023-05-24T04:47:24;13.68;;;4.68;;
75898;SDS011;64576;50.460;4.866;2023-05-24T04:49:50;9.35;;;4.20;;
75898;SDS011;64576;50.460;4.866;2023-05-24T04:52:16;19.77;;;4.85;;
75898;SDS011;64576;50.460;4.866;2023-05-24T04:54:42;16.90;;;4.10;;
75898;SDS011;64576;50.460;4.866;2023-05-24T04:57:07;16.70;;;4.80;;
75898;SDS011;64576;50.460;4.866;2023-05-24T04:59:33;14.20;;;4.50;;
75898;SDS011;64576;50.460;4.866;2023-05-24T05:01:58;12.93;;;4.82;;
75898;SDS011;64576;50.460;4.866;2023-05-24T05:04:23;17.60;;;6.20;;
75898;SDS011;64576;50.460;4.866;2023-05-24T05:06:49;15.73;;;4.85;;
75898;SDS011;64576;50.460;4.866;2023-05-24T05:09:15;14.93;;;5.15;;
75898;SDS011;64576;50.460;4.866;2023-05-24T05:11:41;19.98;;;5.90;;
75898;SDS011;64576;50.460;4.866;2023-05-24T05:14:07;16.83;;;5.10;;
75898;SDS011;64576;50.460;4.866;2023-05-24T05:16:35;15.13;;;5.07;;
75898;SDS011;64576;50.460;4.866;2023-05-24T05:19:01;15.05;;;5.50;;
75898;SDS011;64576;50.460;4.866;2023-05-24T05:21:30;19.48;;;5.80;;
75898;SDS011;64576;50.460;4.866;2023-05-24T05:23:59;21.67;;;6.75;;
75898;SDS011;64576;50.460;4.866;2023-05-24T05:26:28;20.35;;;6.05;;
75898;SDS011;64576;50.460;4.866;2023-05-24T05:28:54;10.88;;;5.20;;
75898;SDS011;64576;50.460;4.866;2023-05-24T05:31:20;15.20;;;4.72;;
75898;SDS011;64576;50.460;4.866;2023-05-24T05:33:46;16.00;;;5.22;;
75898;SDS011;64576;50.460;4.866;2023-05-24T05:36:12;14.43;;;5.30;;
75898;SDS011;64576;50.460;4.866;2023-05-24T05:38:37;15.65;;;5.70;;
75898;SDS011;64576;50.460;4.866;2023-05-24T05:41:02;13.80;;;5.60;;
75898;SDS011;64576;50.460;4.866;2023-05-24T05:43:28;16.40;;;6.82;;
75898;SDS011;64576;50.460;4.866;2023-05-24T05:45:54;16.33;;;5.40;;
75898;SDS011;64576;50.460;4.866;2023-05-24T05:48:20;18.42;;;5.78;;
75898;SDS011;64576;50.460;4.866;2023-05-24T05:50:45;16.17;;;5.82;;
75898;SDS011;64576;50.460;4.866;2023-05-24T05:53:11;18.13;;;4.93;;
75898;SDS011;64576;50.460;4.866;2023-05-24T05:55:36;17.42;;;5.63;;
75898;SDS011;64576;50.460;4.866;2023-05-24T05:58:02;17.60;;;5.68;;
75898;SDS011;64576;50.460;4.866;2023-05-24T06:00:27;19.73;;;6.28;;
75898;SDS011;64576;50.460;4.866;2023-05-24T06:02:52;17.20;;;5.03;;
75898;SDS011;64576;50.460;4.866;2023-05-24T06:05:18;20.60;;;6.72;;
75898;SDS011;64576;50.460;4.866;2023-05-24T06:07:43;30.00;;;5.80;;
75898;SDS011;64576;50.460;4.866;2023-05-24T06:10:10;18.08;;;5.90;;
75898;SDS011;64576;50.460;4.866;2023-05-24T06:12:35;18.77;;;5.50;;
75898;SDS011;64576;50.460;4.866;2023-05-24T06:15:02;18.75;;;5.40;;
75898;SDS011;64576;50.460;4.866;2023-05-24T06:17:30;15.25;;;5.53;;
75898;SDS011;64576;50.460;4.866;2023-05-24T06:19:55;20.65;;;5.70;;
75898;SDS011;64576;50.460;4.866;2023-05-24T06:22:21;21.92;;;5.10;;
75898;SDS011;64576;50.460;4.866;2023-05-24T06:24:47;19.60;;;7.60;;
75898;SDS011;64576;50.460;4.866;2023-05-24T06:27:13;13.50;;;5.68;;
75898;SDS011;64576;50.460;4.866;2023-05-24T06:29:38;16.80;;;4.63;;
75898;SDS011;64576;50.460;4.866;2023-05-24T06:32:04;15.00;;;4.30;;
75898;SDS011;64576;50.460;4.866;2023-05-24T06:34:30;27.17;;;6.45;;
75898;SDS011;64576;50.460;4.866;2023-05-24T06:36:55;19.60;;;4.80;;
75898;SDS011;64576;50.460;4.866;2023-05-24T06:39:22;19.98;;;5.18;;
75898;SDS011;64576;50.460;4.866;2023-05-24T06:41:49;15.80;;;5.65;;
75898;SDS011;64576;50.460;4.866;2023-05-24T06:44:15;14.25;;;5.13;;
75898;SDS011;64576;50.460;4.866;2023-05-24T06:46:41;14.98;;;4.50;;
75898;SDS011;64576;50.460;4.866;2023-05-24T06:49:06;13.68;;;4.55;;
75898;SDS011;64576;50.460;4.866;2023-05-24T06:51:32;18.10;;;4.93;;
75898;SDS011;64576;50.460;4.866;2023-05-24T06:53:58;17.98;;;5.50;;
75898;SDS011;64576;50.460;4.866;2023-05-24T06:56:23;22.25;;;5.90;;
75898;SDS011;64576;50.460;4.866;2023-05-24T06:58:49;22.98;;;6.13;;
75898;SDS011;64576;50.460;4.866;2023-05-24T07:01:15;18.10;;;4.60;;
75898;SDS011;64576;50.460;4.866;2023-05-24T07:03:41;12.35;;;4.78;;
75898;SDS011;64576;50.460;4.866;2023-05-24T07:06:06;15.30;;;5.25;;
75898;SDS011;64576;50.460;4.866;2023-05-24T07:08:34;19.88;;;4.35;;
75898;SDS011;64576;50.460;4.866;2023-05-24T07:11:00;19.55;;;4.82;;
75898;SDS011;64576;50.460;4.866;2023-05-24T07:13:26;15.77;;;4.85;;
75898;SDS011;64576;50.460;4.866;2023-05-24T07:15:51;16.58;;;5.50;;
75898;SDS011;64576;50.460;4.866;2023-05-24T07:18:17;14.65;;;4.93;;
75898;SDS011;64576;50.460;4.866;2023-05-24T07:20:42;16.15;;;4.07;;
75898;SDS011;64576;50.460;4.866;2023-05-24T07:23:07;12.50;;;3.95;;
75898;SDS011;64576;50.460;4.866;2023-05-24T07:25:33;18.45;;;4.35;;
75898;SDS011;64576;50.460;4.866;2023-05-24T07:27:59;16.60;;;5.53;;
75898;SDS011;64576;50.460;4.866;2023-05-24T07:30:25;15.93;;;4.47;;
75898;SDS011;64576;50.460;4.866;2023-05-24T07:32:51;16.30;;;4.20;;
75898;SDS011;64576;50.460;4.866;2023-05-24T07:35:17;21.15;;;4.88;;
75898;SDS011;64576;50.460;4.866;2023-05-24T07:37:42;18.17;;;5.95;;
75898;SDS011;64576;50.460;4.866;2023-05-24T07:40:08;18.73;;;4.35;;
75898;SDS011;64576;50.460;4.866;2023-05-24T07:42:37;17.08;;;3.78;;
75898;SDS011;64576;50.460;4.866;2023-05-24T07:45:03;15.40;;;4.35;;
75898;SDS011;64576;50.460;4.866;2023-05-24T07:47:35;13.10;;;3.78;;
75898;SDS011;64576;50.460;4.866;2023-05-24T07:50:01;12.45;;;4.03;;
75898;SDS011;64576;50.460;4.866;2023-05-24T07:52:27;14.30;;;4.65;;
75898;SDS011;64576;50.460;4.866;2023-05-24T07:54:53;11.65;;;4.22;;
75898;SDS011;64576;50.460;4.866;2023-05-24T07:57:19;14.55;;;4.47;;
75898;SDS011;64576;50.460;4.866;2023-05-24T07:59:44;16.45;;;3.97;;
75898;SDS011;64576;50.460;4.866;2023-05-24T08:02:10;16.13;;;3.80;;
75898;SDS011;64576;50.460;4.866;2023-05-24T08:04:40;10.63;;;4.15;;
75898;SDS011;64576;50.460;4.866;2023-05-24T08:07:08;16.42;;;4.10;;
75898;SDS011;64576;50.460;4.866;2023-05-24T08:09:33;15.68;;;4.70;;
75898;SDS011;64576;50.460;4.866;2023-05-24T08:12:03;18.63;;;4.82;;
75898;SDS011;64576;50.460;4.866;2023-05-24T08:14:31;12.93;;;4.07;;
75898;SDS011;64576;50.460;4.866;2023-05-24T08:16:58;14.20;;;3.47;;
75898;SDS011;64576;50.460;4.866;2023-05-24T08:19:26;15.63;;;3.88;;
75898;SDS011;64576;50.460;4.866;2023-05-24T08:22:01;14.52;;;3.90;;
75898;SDS011;64576;50.460;4.866;2023-05-24T08:24:29;12.68;;;3.30;;
75898;SDS011;64576;50.460;4.866;2023-05-24T08:26:56;15.05;;;4.57;;
75898;SDS011;64576;50.460;4.866;2023-05-24T08:29:26;8.85;;;3.50;;
75898;SDS011;64576;50.460;4.866;2023-05-24T08:31:52;15.95;;;3.72;;
75898;SDS011;64576;50.460;4.866;2023-05-24T08:34:17;15.30;;;4.70;;
75898;SDS011;64576;50.460;4.866;2023-05-24T08:36:43;18.92;;;4.40;;
75898;SDS011;64576;50.460;4.866;2023-05-24T08:39:08;14.85;;;4.15;;
75898;SDS011;64576;50.460;4.866;2023-05-24T08:41:34;9.52;;;3.60;;
75898;SDS011;64576;50.460;4.866;2023-05-24T08:44:04;9.52;;;3.17;;
75898;SDS011;64576;50.460;4.866;2023-05-24T08:46:34;15.90;;;4.82;;
75898;SDS011;64576;50.460;4.866;2023-05-24T08:49:01;12.40;;;3.40;;
75898;SDS011;64576;50.460;4.866;2023-05-24T08:51:28;10.45;;;4.63;;
75898;SDS011;64576;50.460;4.866;2023-05-24T08:53:56;12.35;;;3.55;;
75898;SDS011;64576;50.460;4.866;2023-05-24T08:56:22;13.95;;;3.70;;
75898;SDS011;64576;50.460;4.866;2023-05-24T08:58:50;11.85;;;4.28;;
75898;SDS011;64576;50.460;4.866;2023-05-24T09:01:16;10.15;;;3.58;;
75898;SDS011;64576;50.460;4.866;2023-05-24T09:03:55;8.55;;;3.75;;
75898;SDS011;64576;50.460;4.866;2023-05-24T09:06:26;16.95;;;3.45;;
75898;SDS011;64576;50.460;4.866;2023-05-24T09:08:52;12.82;;;3.67;;
75898;SDS011;64576;50.460;4.866;2023-05-24T09:11:18;15.00;;;5.05;;
75898;SDS011;64576;50.460;4.866;2023-05-24T09:13:46;13.45;;;5.03;;
75898;SDS011;64576;50.460;4.866;2023-05-24T09:16:13;14.57;;;4.07;;
75898;SDS011;64576;50.460;4.866;2023-05-24T09:18:40;11.02;;;3.70;;
75898;SDS011;64576;50.460;4.866;2023-05-24T09:21:11;10.23;;;3.75;;
75898;SDS011;64576;50.460;4.866;2023-05-24T09:23:37;16.00;;;4.32;;
75898;SDS011;64576;50.460;4.866;2023-05-24T09:26:08;15.30;;;4.28;;
75898;SDS011;64576;50.460;4.866;2023-05-24T09:28:34;18.42;;;5.15;;
75898;SDS011;64576;50.460;4.866;2023-05-24T09:31:01;7.95;;;3.42;;
75898;SDS011;64576;50.460;4.866;2023-05-24T09:33:30;14.38;;;4.70;;
75898;SDS011;64576;50.460;4.866;2023-05-24T09:35:57;11.32;;;3.95;;
75898;SDS011;64576;50.460;4.866;2023-05-24T09:38:24;9.13;;;3.90;;
75898;SDS011;64576;50.460;4.866;2023-05-24T09:41:00;13.65;;;4.10;;
75898;SDS011;64576;50.460;4.866;2023-05-24T09:43:27;11.50;;;4.05;;
75898;SDS011;64576;50.460;4.866;2023-05-24T09:45:54;15.15;;;5.22;;
75898;SDS011;64576;50.460;4.866;2023-05-24T09:48:22;13.80;;;4.00;;
75898;SDS011;64576;50.460;4.866;2023-05-24T09:53:33;12.35;;;4.60;;
75898;SDS011;64576;50.460;4.866;2023-05-24T09:56:02;10.02;;;3.40;;
75898;SDS011;64576;50.460;4.866;2023-05-24T09:58:36;14.25;;;4.38;;
75898;SDS011;64576;50.460;4.866;2023-05-24T10:01:07;10.48;;;4.18;;
75898;SDS011;64576;50.460;4.866;2023-05-24T10:03:35;12.13;;;4.97;;
75898;SDS011;64576;50.460;4.866;2023-05-24T10:06:02;13.30;;;4.00;;
75898;SDS011;64576;50.460;4.866;2023-05-24T10:11:01;11.07;;;4.72;;
75898;SDS011;64576;50.460;4.866;2023-05-24T10:13:29;11.95;;;4.10;;
75898;SDS011;64576;50.460;4.866;2023-05-24T10:15:56;16.13;;;4.53;;
75898;SDS011;64576;50.460;4.866;2023-05-24T10:18:21;12.13;;;3.97;;
75898;SDS011;64576;50.460;4.866;2023-05-24T10:20:47;15.52;;;4.80;;
75898;SDS011;64576;50.460;4.866;2023-05-24T10:23:14;13.35;;;4.15;;
75898;SDS011;64576;50.460;4.866;2023-05-24T10:25:49;14.70;;;4.82;;
75898;SDS011;64576;50.460;4.866;2023-05-24T10:28:19;15.43;;;4.30;;
75898;SDS011;64576;50.460;4.866;2023-05-24T10:33:35;9.45;;;5.10;;
75898;SDS011;64576;50.460;4.866;2023-05-24T10:36:02;11.40;;;4.95;;
75898;SDS011;64576;50.460;4.866;2023-05-24T10:38:30;13.77;;;4.88;;
75898;SDS011;64576;50.460;4.866;2023-05-24T10:40:56;14.73;;;4.65;;
75898;SDS011;64576;50.460;4.866;2023-05-24T10:43:22;13.57;;;4.40;;
75898;SDS011;64576;50.460;4.866;2023-05-24T10:45:48;12.32;;;4.82;;
75898;SDS011;64576;50.460;4.866;2023-05-24T10:50:41;13.10;;;3.55;;
75898;SDS011;64576;50.460;4.866;2023-05-24T10:53:11;8.93;;;3.80;;
75898;SDS011;64576;50.460;4.866;2023-05-24T11:01:25;11.43;;;4.70;;
75898;SDS011;64576;50.460;4.866;2023-05-24T11:04:04;9.82;;;3.95;;
75898;SDS011;64576;50.460;4.866;2023-05-24T11:06:46;12.65;;;5.40;;
75898;SDS011;64576;50.460;4.866;2023-05-24T11:09:42;10.43;;;3.75;;
75898;SDS011;64576;50.460;4.866;2023-05-24T11:12:22;17.88;;;4.70;;
75898;SDS011;64576;50.460;4.866;2023-05-24T11:14:54;10.82;;;5.13;;
75898;SDS011;64576;50.460;4.866;2023-05-24T11:17:21;16.42;;;4.53;;
75898;SDS011;64576;50.460;4.866;2023-05-24T11:22:20;13.95;;;4.72;;
75898;SDS011;64576;50.460;4.866;2023-05-24T11:24:46;9.93;;;4.32;;
75898;SDS011;64576;50.460;4.866;2023-05-24T11:27:13;13.52;;;4.22;;
75898;SDS011;64576;50.460;4.866;2023-05-24T11:29:42;9.43;;;4.80;;
75898;SDS011;64576;50.460;4.866;2023-05-24T11:32:09;14.02;;;4.82;;
75898;SDS011;64576;50.460;4.866;2023-05-24T11:34:38;12.65;;;4.60;;
75898;SDS011;64576;50.460;4.866;2023-05-24T11:37:04;15.55;;;4.78;;
75898;SDS011;64576;50.460;4.866;2023-05-24T11:39:39;14.57;;;4.75;;
75898;SDS011;64576;50.460;4.866;2023-05-24T11:42:06;13.02;;;5.00;;
75898;SDS011;64576;50.460;4.866;2023-05-24T11:44:32;12.65;;;4.72;;
75898;SDS011;64576;50.460;4.866;2023-05-24T11:46:58;14.18;;;4.97;;
75898;SDS011;64576;50.460;4.866;2023-05-24T11:49:29;15.07;;;5.32;;
75898;SDS011;64576;50.460;4.866;2023-05-24T11:51:55;19.30;;;5.55;;
75898;SDS011;64576;50.460;4.866;2023-05-24T11:54:25;11.20;;;5.22;;
75898;SDS011;64576;50.460;4.866;2023-05-24T11:56:53;12.90;;;5.65;;
75898;SDS011;64576;50.460;4.866;2023-05-24T11:59:23;13.25;;;4.07;;
75898;SDS011;64576;50.460;4.866;2023-05-24T12:01:55;10.63;;;4.63;;
75898;SDS011;64576;50.460;4.866;2023-05-24T12:04:23;12.98;;;6.07;;
75898;SDS011;64576;50.460;4.866;2023-05-24T12:06:48;24.42;;;5.95;;
75898;SDS011;64576;50.460;4.866;2023-05-24T12:09:13;13.80;;;5.68;;
75898;SDS011;64576;50.460;4.866;2023-05-24T12:11:46;20.17;;;5.93;;
75898;SDS011;64576;50.460;4.866;2023-05-24T12:14:14;15.77;;;5.35;;
75898;SDS011;64576;50.460;4.866;2023-05-24T12:16:42;12.65;;;5.70;;
75898;SDS011;64576;50.460;4.866;2023-05-24T12:19:15;13.73;;;4.90;;
75898;SDS011;64576;50.460;4.866;2023-05-24T12:21:45;14.65;;;4.80;;
75898;SDS011;64576;50.460;4.866;2023-05-24T12:24:15;14.30;;;4.88;;
75898;SDS011;64576;50.460;4.866;2023-05-24T12:26:44;12.57;;;5.38;;
75898;SDS011;64576;50.460;4.866;2023-05-24T12:29:11;21.05;;;6.68;;
75898;SDS011;64576;50.460;4.866;2023-05-24T12:31:46;13.77;;;5.13;;
75898;SDS011;64576;50.460;4.866;2023-05-24T12:34:12;18.80;;;5.75;;
75898;SDS011;64576;50.460;4.866;2023-05-24T12:36:38;18.63;;;6.30;;
75898;SDS011;64576;50.460;4.866;2023-05-24T12:39:19;13.38;;;5.03;;
75898;SDS011;64576;50.460;4.866;2023-05-24T12:41:52;12.18;;;5.43;;
75898;SDS011;64576;50.460;4.866;2023-05-24T12:44:22;19.63;;;6.43;;
75898;SDS011;64576;50.460;4.866;2023-05-24T12:46:49;13.50;;;5.25;;
75898;SDS011;64576;50.460;4.866;2023-05-24T12:49:17;15.25;;;6.38;;
75898;SDS011;64576;50.460;4.866;2023-05-24T12:51:42;16.05;;;6.75;;
75898;SDS011;64576;50.460;4.866;2023-05-24T12:54:08;13.00;;;5.78;;
75898;SDS011;64576;50.460;4.866;2023-05-24T12:56:33;9.68;;;4.70;;
75898;SDS011;64576;50.460;4.866;2023-05-24T12:58:59;12.27;;;5.97;;
75898;SDS011;64576;50.460;4.866;2023-05-24T13:01:25;14.85;;;5.75;;
75898;SDS011;64576;50.460;4.866;2023-05-24T13:03:51;20.08;;;7.43;;
75898;SDS011;64576;50.460;4.866;2023-05-24T13:06:17;16.55;;;6.72;;
75898;SDS011;64576;50.460;4.866;2023-05-24T13:08:49;10.38;;;6.63;;
75898;SDS011;64576;50.460;4.866;2023-05-24T13:11:14;16.80;;;7.45;;
75898;SDS011;64576;50.460;4.866;2023-05-24T13:13:40;16.40;;;7.43;;
75898;SDS011;64576;50.460;4.866;2023-05-24T13:16:05;17.77;;;7.80;;
75898;SDS011;64576;50.460;4.866;2023-05-24T13:18:33;15.30;;;8.10;;
75898;SDS011;64576;50.460;4.866;2023-05-24T13:20:59;19.40;;;8.20;;
75898;SDS011;64576;50.460;4.866;2023-05-24T13:23:30;15.35;;;7.75;;
75898;SDS011;64576;50.460;4.866;2023-05-24T13:25:55;18.50;;;7.97;;
75898;SDS011;64576;50.460;4.866;2023-05-24T13:28:21;18.55;;;9.35;;
75898;SDS011;64576;50.460;4.866;2023-05-24T13:30:46;16.05;;;8.98;;
75898;SDS011;64576;50.460;4.866;2023-05-24T13:33:12;16.88;;;7.80;;
75898;SDS011;64576;50.460;4.866;2023-05-24T13:35:38;18.15;;;8.50;;
75898;SDS011;64576;50.460;4.866;2023-05-24T13:38:04;17.55;;;7.90;;
75898;SDS011;64576;50.460;4.866;2023-05-24T13:40:30;18.92;;;8.60;;
75898;SDS011;64576;50.460;4.866;2023-05-24T13:42:56;16.63;;;10.25;;
75898;SDS011;64576;50.460;4.866;2023-05-24T13:45:22;14.13;;;7.88;;
75898;SDS011;64576;50.460;4.866;2023-05-24T13:47:47;18.77;;;8.75;;
75898;SDS011;64576;50.460;4.866;2023-05-24T13:50:13;14.63;;;7.68;;
75898;SDS011;64576;50.460;4.866;2023-05-24T13:52:38;14.27;;;7.85;;
75898;SDS011;64576;50.460;4.866;2023-05-24T13:55:04;17.40;;;8.23;;
75898;SDS011;64576;50.460;4.866;2023-05-24T13:57:30;15.63;;;8.13;;
75898;SDS011;64576;50.460;4.866;2023-05-24T13:59:57;14.35;;;8.50;;
75898;SDS011;64576;50.460;4.866;2023-05-24T14:02:24;15.77;;;8.27;;
75898;SDS011;64576;50.460;4.866;2023-05-24T14:04:49;16.70;;;8.82;;
75898;SDS011;64576;50.460;4.866;2023-05-24T14:07:16;16.92;;;7.78;;
75898;SDS011;64576;50.460;4.866;2023-05-24T14:09:42;15.55;;;9.23;;
75898;SDS011;64576;50.460;4.866;2023-05-24T14:12:08;17.63;;;9.40;;
75898;SDS011;64576;50.460;4.866;2023-05-24T14:14:33;18.52;;;8.73;;
75898;SDS011;64576;50.460;4.866;2023-05-24T14:16:59;16.00;;;7.68;;
75898;SDS011;64576;50.460;4.866;2023-05-24T14:19:24;15.50;;;7.32;;
75898;SDS011;64576;50.460;4.866;2023-05-24T14:21:50;18.17;;;8.50;;
75898;SDS011;64576;50.460;4.866;2023-05-24T14:24:15;14.68;;;7.28;;
75898;SDS011;64576;50.460;4.866;2023-05-24T14:26:41;20.27;;;8.30;;
75898;SDS011;64576;50.460;4.866;2023-05-24T14:29:07;18.65;;;9.40;;
75898;SDS011;64576;50.460;4.866;2023-05-24T14:31:33;15.20;;;7.38;;
75898;SDS011;64576;50.460;4.866;2023-05-24T14:34:05;17.65;;;8.27;;
75898;SDS011;64576;50.460;4.866;2023-05-24T14:36:31;15.93;;;7.65;;
75898;SDS011;64576;50.460;4.866;2023-05-24T14:38:56;21.77;;;7.55;;
75898;SDS011;64576;50.460;4.866;2023-05-24T14:41:21;13.60;;;7.93;;
75898;SDS011;64576;50.460;4.866;2023-05-24T14:43:47;17.45;;;6.60;;
75898;SDS011;64576;50.460;4.866;2023-05-24T14:46:12;15.32;;;7.10;;
75898;SDS011;64576;50.460;4.866;2023-05-24T14:48:38;14.60;;;6.65;;
75898;SDS011;64576;50.460;4.866;2023-05-24T14:51:05;17.08;;;7.28;;
75898;SDS011;64576;50.460;4.866;2023-05-24T14:53:31;15.88;;;7.45;;
75898;SDS011;64576;50.460;4.866;2023-05-24T14:55:57;14.00;;;7.38;;
75898;SDS011;64576;50.460;4.866;2023-05-24T14:58:22;11.25;;;6.60;;
75898;SDS011;64576;50.460;4.866;2023-05-24T15:00:48;12.15;;;6.65;;
75898;SDS011;64576;50.460;4.866;2023-05-24T15:03:13;16.13;;;6.55;;
75898;SDS011;64576;50.460;4.866;2023-05-24T15:05:39;13.65;;;6.18;;
75898;SDS011;64576;50.460;4.866;2023-05-24T15:08:06;12.73;;;6.05;;